Time;durP1;ratioP1;P1;durP2;ratioP2;P2;SDS_P1;SDS_P2;PMS_P1;PMS_P2;Temp;Humidity;BMP_temperature;BMP_pressure;BME280_temperature;BME280_humidity;BME280_pressure;Samples;Min_cycle;Max_cycle;Signal;HPM_P1;HPM_P2
2021/08/13 00:00:44;;;;;;;10.50;7.17;;;23.50;99.90;;;;;;5053560;28;20219;-69
2021/08/13 00:03:10;;;;;;;7.30;6.60;;;23.50;99.90;;;;;;5070186;28;20627;-69
2021/08/13 00:05:35;;;;;;;8.50;7.13;;;23.50;99.90;;;;;;5054126;28;20314;-71
2021/08/13 00:08:01;;;;;;;9.70;7.60;;;23.40;99.90;;;;;;5069869;28;20207;-70
2021/08/13 00:10:27;;;;;;;8.67;7.20;;;23.40;99.90;;;;;;5063889;28;20227;-69
2021/08/13 00:12:53;;;;;;;8.00;6.80;;;23.40;99.90;;;;;;5061197;28;20218;-69
2021/08/13 00:15:18;;;;;;;7.90;6.87;;;23.40;99.90;;;;;;5067210;28;20241;-69
2021/08/13 00:17:44;;;;;;;8.70;7.20;;;23.30;99.90;;;;;;5055183;28;20244;-70
2021/08/13 00:20:11;;;;;;;8.60;7.70;;;23.30;99.90;;;;;;5063770;28;20213;-69
2021/08/13 00:22:36;;;;;;;8.27;7.47;;;23.30;99.90;;;;;;5069684;28;20615;-69
2021/08/13 00:25:02;;;;;;;7.50;6.13;;;23.30;99.90;;;;;;5049496;28;20450;-70
2021/08/13 00:27:28;;;;;;;9.93;7.40;;;23.30;99.90;;;;;;5065175;28;20234;-69
2021/08/13 00:29:54;;;;;;;7.83;6.40;;;23.20;99.90;;;;;;5069514;28;20698;-69
2021/08/13 00:32:20;;;;;;;10.50;7.07;;;23.20;99.90;;;;;;5070088;28;20292;-69
2021/08/13 00:34:46;;;;;;;9.87;7.27;;;23.20;99.90;;;;;;5070194;28;20460;-70
2021/08/13 00:37:16;;;;;;;8.73;7.50;;;23.20;99.90;;;;;;5049886;28;20977;-69
2021/08/13 00:39:43;;;;;;;8.77;6.50;;;23.10;99.90;;;;;;5066326;28;20465;-69
2021/08/13 00:42:10;;;;;;;7.23;5.90;;;23.10;99.90;;;;;;5060095;28;20565;-68
2021/08/13 00:44:40;;;;;;;14.13;7.03;;;23.10;99.90;;;;;;5061011;28;20520;-69
2021/08/13 00:47:05;;;;;;;8.80;7.00;;;23.10;99.90;;;;;;5061132;28;20466;-68
2021/08/13 00:49:43;;;;;;;10.50;7.43;;;23.10;99.90;;;;;;5063171;28;20476;-70
2021/08/13 00:52:16;;;;;;;7.90;7.00;;;23.10;99.90;;;;;;5053013;28;20520;-69
2021/08/13 00:54:44;;;;;;;8.77;6.50;;;23.00;99.90;;;;;;5049360;28;20873;-68
2021/08/13 00:57:10;;;;;;;8.43;6.80;;;23.00;99.90;;;;;;5048420;28;20450;-70
2021/08/13 00:59:59;;;;;;;9.57;6.40;;;23.00;99.90;;;;;;5065718;28;20238;-69
2021/08/13 01:02:35;;;;;;;12.87;7.57;;;23.00;99.90;;;;;;5070066;28;20456;-68
2021/08/13 01:05:14;;;;;;;8.87;7.83;;;23.00;99.90;;;;;;5049745;28;20812;-69
2021/08/13 01:07:39;;;;;;;6.67;6.07;;;22.90;99.90;;;;;;5069088;28;20478;-70
2021/08/13 01:10:07;;;;;;;7.03;6.33;;;22.80;99.90;;;;;;5053530;28;20477;-69
2021/08/13 01:12:57;;;;;;;9.90;6.80;;;22.80;99.90;;;;;;5052961;28;20484;-68
2021/08/13 01:15:31;;;;;;;8.13;7.23;;;22.80;99.90;;;;;;5053310;28;20457;-69
2021/08/13 01:18:03;;;;;;;7.23;6.50;;;22.80;99.90;;;;;;5051865;28;20490;-69
2021/08/13 01:21:01;;;;;;;11.60;7.40;;;22.70;99.90;;;;;;5065455;28;20498;-68
2021/08/13 01:23:37;;;;;;;7.20;6.23;;;22.70;99.90;;;;;;5033542;28;20872;-69
2021/08/13 01:26:06;;;;;;;9.80;8.10;;;22.70;99.90;;;;;;5051933;28;20826;-69
2021/08/13 01:28:37;;;;;;;9.10;7.10;;;22.70;99.90;;;;;;5034770;28;20450;-70
2021/08/13 01:31:14;;;;;;;7.57;6.77;;;22.70;99.90;;;;;;5064026;28;20457;-70
2021/08/13 01:33:42;;;;;;;8.40;7.53;;;22.60;99.90;;;;;;5068331;28;21011;-69
2021/08/13 01:36:10;;;;;;;11.23;7.17;;;22.60;99.90;;;;;;5068364;28;20839;-70
2021/08/13 01:38:38;;;;;;;8.73;6.57;;;22.60;99.90;;;;;;5067797;28;20474;-68
2021/08/13 01:41:06;;;;;;;7.33;6.67;;;22.60;99.90;;;;;;5051815;28;20452;-69
2021/08/13 01:43:41;;;;;;;8.33;6.60;;;22.50;99.90;;;;;;5052863;28;21004;-69
2021/08/13 01:46:08;;;;;;;9.53;6.83;;;22.50;99.90;;;;;;5052060;28;20997;-70
2021/08/13 01:48:40;;;;;;;6.93;6.20;;;22.50;99.90;;;;;;5069081;28;20457;-69
2021/08/13 01:51:08;;;;;;;7.77;6.13;;;22.50;99.90;;;;;;5036644;28;20454;-68
2021/08/13 01:53:36;;;;;;;9.60;6.70;;;22.50;99.90;;;;;;5066753;28;20848;-69
2021/08/13 01:56:03;;;;;;;8.13;6.97;;;22.40;99.90;;;;;;5068346;28;20441;-68
2021/08/13 01:58:31;;;;;;;7.67;6.87;;;22.40;99.90;;;;;;5069117;28;20226;-69
2021/08/13 02:01:01;;;;;;;9.60;7.27;;;22.40;99.90;;;;;;5051812;28;20453;-68
2021/08/13 02:03:27;;;;;;;9.77;7.10;;;22.40;99.90;;;;;;5060766;28;20857;-69
2021/08/13 02:05:54;;;;;;;6.97;6.30;;;22.40;99.90;;;;;;5051201;28;20449;-70
2021/08/13 02:08:20;;;;;;;7.93;7.00;;;22.30;99.90;;;;;;5068892;28;20230;-69
2021/08/13 02:10:49;;;;;;;7.40;6.70;;;22.40;99.90;;;;;;5063559;28;20537;-70
2021/08/13 02:13:16;;;;;;;8.57;6.50;;;22.40;99.90;;;;;;5072504;28;20453;-69
2021/08/13 02:15:57;;;;;;;7.30;6.53;;;22.30;99.90;;;;;;5073026;28;20552;-70
2021/08/13 02:18:25;;;;;;;6.87;5.90;;;22.30;99.90;;;;;;5072505;28;20556;-69
2021/08/13 02:20:55;;;;;;;8.03;7.20;;;22.30;99.90;;;;;;5055462;28;20456;-69
2021/08/13 02:23:23;;;;;;;7.97;6.37;;;22.30;99.90;;;;;;5072630;28;20511;-69
2021/08/13 02:25:55;;;;;;;10.50;7.40;;;22.20;99.90;;;;;;5056034;28;20456;-70
2021/08/13 02:28:22;;;;;;;8.63;7.73;;;22.20;99.90;;;;;;5072468;28;20539;-69
2021/08/13 02:30:49;;;;;;;7.97;7.17;;;22.20;99.90;;;;;;5072261;28;20457;-69
2021/08/13 02:33:16;;;;;;;8.77;7.03;;;22.20;99.90;;;;;;5055608;28;20575;-69
2021/08/13 02:35:45;;;;;;;8.60;6.93;;;22.20;99.90;;;;;;5055032;28;20893;-70
2021/08/13 02:38:16;;;;;;;13.43;7.63;;;22.10;99.90;;;;;;5071922;28;20225;-67
2021/08/13 02:41:03;;;;;;;9.00;6.50;;;22.10;99.90;;;;;;5055505;28;20456;-69
2021/08/13 02:43:42;;;;;;;10.97;6.77;;;22.10;99.90;;;;;;5055107;28;20526;-68
2021/08/13 02:46:10;;;;;;;10.23;6.80;;;22.10;99.90;;;;;;5044038;28;20883;-69
2021/08/13 02:48:39;;;;;;;8.50;6.67;;;22.10;99.90;;;;;;5068688;28;20519;-69
2021/08/13 02:51:10;;;;;;;7.40;6.53;;;22.10;99.90;;;;;;5070931;28;20552;-70
2021/08/13 02:53:44;;;;;;;8.37;6.90;;;22.00;99.90;;;;;;5071796;28;20526;-69
2021/08/13 02:56:13;;;;;;;8.50;7.60;;;22.00;99.90;;;;;;5055360;28;20460;-69
2021/08/13 02:58:45;;;;;;;7.77;6.60;;;21.90;99.90;;;;;;5055282;28;20492;-69
2021/08/13 03:01:44;;;;;;;8.30;7.33;;;21.90;99.90;;;;;;5044124;28;20454;-69
2021/08/13 03:04:11;;;;;;;9.07;7.40;;;21.90;99.90;;;;;;5021632;28;20560;-67
2021/08/13 03:06:40;;;;;;;12.20;8.63;;;21.90;99.90;;;;;;5072199;28;20515;-70
2021/08/13 03:09:07;;;;;;;11.37;8.47;;;21.90;99.90;;;;;;5067287;28;20496;-68
2021/08/13 03:11:34;;;;;;;9.50;8.30;;;21.90;99.90;;;;;;5070939;28;20515;-70
2021/08/13 03:14:03;;;;;;;8.97;7.53;;;21.90;99.90;;;;;;5071119;28;20476;-69
2021/08/13 03:16:32;;;;;;;8.97;7.27;;;21.80;99.90;;;;;;5054483;28;20476;-69
2021/08/13 03:18:59;;;;;;;7.77;6.97;;;21.80;99.90;;;;;;5070880;28;20468;-71
2021/08/13 03:21:25;;;;;;;8.13;7.30;;;21.80;99.90;;;;;;5053472;28;20457;-69
2021/08/13 03:23:53;;;;;;;8.87;7.27;;;21.80;99.90;;;;;;5036273;28;20458;-69
2021/08/13 03:26:20;;;;;;;9.27;8.00;;;21.80;99.90;;;;;;5071028;28;20457;-69
2021/08/13 03:28:48;;;;;;;8.30;7.47;;;21.80;99.90;;;;;;5054635;28;20535;-69
2021/08/13 03:31:33;;;;;;;22.87;19.43;;;21.70;99.90;;;;;;5054379;28;20444;-70
2021/08/13 03:34:01;;;;;;;14.73;12.70;;;21.70;99.90;;;;;;5047681;28;20535;-70
2021/08/13 03:36:29;;;;;;;11.40;10.20;;;21.60;99.90;;;;;;5071598;28;20476;-70
2021/08/13 03:38:55;;;;;;;10.63;8.87;;;21.70;99.90;;;;;;5070844;28;20465;-70
2021/08/13 03:41:21;;;;;;;10.63;9.43;;;21.70;99.90;;;;;;5054813;28;20564;-69
2021/08/13 03:43:46;;;;;;;11.77;8.57;;;21.70;99.90;;;;;;5063610;28;21205;-69
2021/08/13 03:46:12;;;;;;;9.97;8.07;;;21.70;99.90;;;;;;5054044;28;20241;-69
2021/08/13 03:48:38;;;;;;;11.17;8.30;;;21.70;99.90;;;;;;5071306;28;20311;-69
2021/08/13 03:51:03;;;;;;;9.60;7.40;;;21.80;99.90;;;;;;5070056;28;20219;-70
2021/08/13 03:53:29;;;;;;;9.50;7.83;;;21.80;99.90;;;;;;5054252;28;20227;-70
2021/08/13 03:55:55;;;;;;;10.13;7.77;;;21.80;99.90;;;;;;5070911;28;20234;-70
2021/08/13 03:58:22;;;;;;;9.63;8.13;;;21.80;99.90;;;;;;5071102;28;20246;-70
2021/08/13 04:00:48;;;;;;;8.43;7.50;;;21.80;99.90;;;;;;5070779;28;20961;-69
2021/08/13 04:03:14;;;;;;;11.07;8.20;;;21.80;99.90;;;;;;5053679;28;20216;-69
2021/08/13 04:05:39;;;;;;;9.20;7.70;;;21.80;99.90;;;;;;5070768;28;20638;-70
2021/08/13 04:08:05;;;;;;;9.93;7.60;;;21.70;99.90;;;;;;5069474;28;20210;-68
2021/08/13 04:10:31;;;;;;;9.33;8.23;;;21.80;99.90;;;;;;5070101;28;20833;-69
2021/08/13 04:12:58;;;;;;;9.90;7.77;;;21.80;99.90;;;;;;5049855;28;20512;-68
2021/08/13 04:15:24;;;;;;;12.07;8.83;;;21.80;99.90;;;;;;5067143;28;20461;-71
2021/08/13 04:17:52;;;;;;;10.83;8.00;;;21.80;99.90;;;;;;5045567;28;20477;-70
2021/08/13 04:20:22;;;;;;;8.63;7.30;;;21.80;99.90;;;;;;5054439;28;20456;-69
2021/08/13 04:22:52;;;;;;;7.53;6.80;;;21.70;99.90;;;;;;5069552;28;20507;-70
2021/08/13 04:25:18;;;;;;;9.23;8.00;;;21.70;99.90;;;;;;5053873;28;20441;-69
2021/08/13 04:27:44;;;;;;;8.13;6.93;;;21.70;99.90;;;;;;5069454;28;20488;-69
2021/08/13 04:30:10;;;;;;;8.50;7.50;;;21.70;99.90;;;;;;5053291;28;20222;-68
2021/08/13 04:32:40;;;;;;;8.00;7.10;;;21.80;99.90;;;;;;5069428;28;20222;-70
2021/08/13 04:35:10;;;;;;;8.90;7.40;;;21.70;99.90;;;;;;5053510;28;20902;-68
2021/08/13 04:37:36;;;;;;;9.70;7.67;;;21.70;99.90;;;;;;5053631;28;20473;-69
2021/08/13 04:40:02;;;;;;;15.07;9.37;;;21.70;99.90;;;;;;5053130;28;20493;-68
2021/08/13 04:42:28;;;;;;;8.90;7.37;;;21.70;99.90;;;;;;5070146;28;20274;-70
2021/08/13 04:44:54;;;;;;;13.07;7.80;;;21.70;99.90;;;;;;5052924;28;20453;-68
2021/08/13 04:47:20;;;;;;;9.43;7.87;;;21.70;99.90;;;;;;5070248;28;20457;-69
2021/08/13 04:49:46;;;;;;;9.03;7.67;;;21.70;99.90;;;;;;5053620;28;20215;-69
2021/08/13 04:52:13;;;;;;;11.57;8.30;;;21.70;99.90;;;;;;5069655;28;20445;-69
2021/08/13 04:54:39;;;;;;;8.73;7.83;;;21.70;99.90;;;;;;5053066;28;20231;-69
2021/08/13 04:57:05;;;;;;;8.93;7.97;;;21.70;99.90;;;;;;5069555;28;20472;-67
2021/08/13 04:59:30;;;;;;;9.40;6.90;;;21.70;99.90;;;;;;5069652;28;20364;-69
2021/08/13 05:02:01;;;;;;;9.53;8.10;;;21.70;99.90;;;;;;5069140;28;20686;-68
2021/08/13 05:04:27;;;;;;;10.70;8.70;;;21.60;99.90;;;;;;5053073;28;20937;-69
2021/08/13 05:06:53;;;;;;;9.47;6.83;;;21.60;99.90;;;;;;5052067;28;20446;-68
2021/08/13 05:09:19;;;;;;;9.53;7.87;;;21.60;99.90;;;;;;5068723;28;20592;-69
2021/08/13 05:11:47;;;;;;;8.80;7.90;;;21.60;99.90;;;;;;5046639;28;20212;-69
2021/08/13 05:14:14;;;;;;;9.13;7.20;;;21.60;99.90;;;;;;5068942;28;20887;-68
2021/08/13 05:16:41;;;;;;;8.93;7.70;;;21.60;99.90;;;;;;5053403;28;20454;-69
2021/08/13 05:19:07;;;;;;;9.03;8.10;;;21.60;99.90;;;;;;5068692;28;21003;-69
2021/08/13 05:21:37;;;;;;;11.33;8.10;;;21.70;99.90;;;;;;5052763;28;20369;-70
2021/08/13 05:24:05;;;;;;;8.70;7.87;;;21.60;99.90;;;;;;5068756;28;20318;-69
2021/08/13 05:26:30;;;;;;;14.83;8.70;;;21.60;99.90;;;;;;5069131;28;20445;-72
2021/08/13 05:28:56;;;;;;;8.57;7.77;;;21.60;99.90;;;;;;5052399;28;20457;-69
2021/08/13 05:31:22;;;;;;;7.97;7.17;;;21.60;99.90;;;;;;5069173;28;20306;-69
2021/08/13 05:33:48;;;;;;;8.40;7.33;;;21.60;99.90;;;;;;5052556;28;20569;-69
2021/08/13 05:36:17;;;;;;;9.93;7.90;;;21.60;99.90;;;;;;5068803;28;20294;-69
2021/08/13 05:38:43;;;;;;;10.70;8.20;;;21.60;99.90;;;;;;5069104;28;20649;-68
2021/08/13 05:41:09;;;;;;;9.27;7.63;;;21.60;99.90;;;;;;5048156;28;20477;-69
2021/08/13 05:43:36;;;;;;;9.77;7.13;;;21.60;99.90;;;;;;5065548;28;20454;-69
2021/08/13 05:46:02;;;;;;;8.37;7.50;;;21.60;99.90;;;;;;5065339;28;20871;-69
2021/08/13 05:48:28;;;;;;;11.20;6.83;;;21.70;99.90;;;;;;5049029;28;20240;-71
2021/08/13 05:50:53;;;;;;;12.60;7.70;;;21.70;99.90;;;;;;5064960;28;20956;-68
2021/08/13 05:53:19;;;;;;;7.90;7.10;;;21.70;99.90;;;;;;5054484;28;20239;-69
2021/08/13 05:55:45;;;;;;;8.90;6.90;;;21.70;99.90;;;;;;5069168;28;20597;-68
2021/08/13 05:58:12;;;;;;;8.90;6.97;;;21.70;99.90;;;;;;5068473;28;20717;-69
2021/08/13 06:00:38;;;;;;;13.47;7.43;;;21.70;99.90;;;;;;5051738;28;20540;-67
2021/08/13 06:03:07;;;;;;;13.23;9.00;;;21.70;99.90;;;;;;5068276;28;20234;-69
2021/08/13 06:05:38;;;;;;;6.97;6.20;;;21.80;99.90;;;;;;5053292;28;20446;-70
2021/08/13 06:08:04;;;;;;;8.73;7.17;;;21.80;99.90;;;;;;5068399;28;21026;-69
2021/08/13 06:10:30;;;;;;;9.90;7.60;;;21.80;99.90;;;;;;5068807;28;20215;-69
2021/08/13 06:12:57;;;;;;;10.03;7.07;;;21.90;99.90;;;;;;5068414;28;20450;-68
2021/08/13 06:15:23;;;;;;;10.10;7.87;;;21.90;99.90;;;;;;5068500;28;20457;-70
2021/08/13 06:17:49;;;;;;;13.20;8.27;;;21.90;99.90;;;;;;5068701;28;20641;-69
2021/08/13 06:20:17;;;;;;;9.37;7.73;;;22.00;99.90;;;;;;5067882;28;20237;-69
2021/08/13 06:22:49;;;;;;;8.20;7.40;;;22.00;99.90;;;;;;5068677;28;20260;-68
2021/08/13 06:25:17;;;;;;;8.57;7.47;;;22.00;99.90;;;;;;5068148;28;21044;-68
2021/08/13 06:27:45;;;;;;;8.83;7.33;;;22.00;99.90;;;;;;5052077;28;20520;-69
2021/08/13 06:30:14;;;;;;;7.90;7.10;;;22.10;99.90;;;;;;5051295;28;20218;-69
2021/08/13 06:32:40;;;;;;;9.10;7.77;;;22.10;99.90;;;;;;5068045;28;20460;-69
2021/08/13 06:35:07;;;;;;;8.83;7.93;;;22.10;99.90;;;;;;5051409;28;20457;-68
2021/08/13 06:37:33;;;;;;;8.53;7.63;;;22.10;99.90;;;;;;5068227;28;20488;-69
2021/08/13 06:39:59;;;;;;;10.60;8.33;;;22.10;99.90;;;;;;5068307;28;20496;-69
2021/08/13 06:42:24;;;;;;;10.63;8.20;;;22.20;99.90;;;;;;5069734;28;20477;-68
2021/08/13 06:45:11;;;;;;;10.57;7.40;;;22.20;99.90;;;;;;5067743;28;20305;-69
2021/08/13 06:47:37;;;;;;;8.90;8.00;;;22.20;99.90;;;;;;5068399;28;20453;-68
2021/08/13 06:50:04;;;;;;;8.70;7.77;;;22.20;99.90;;;;;;5051161;28;20464;-69
2021/08/13 06:52:31;;;;;;;9.47;7.83;;;22.30;99.90;;;;;;5068425;28;20223;-70
2021/08/13 06:54:57;;;;;;;9.70;7.63;;;22.40;99.90;;;;;;5051227;28;20510;-71
2021/08/13 06:57:23;;;;;;;9.73;7.47;;;22.40;99.90;;;;;;5055641;28;20227;-68
2021/08/13 06:59:49;;;;;;;10.47;7.87;;;22.40;99.90;;;;;;5071796;28;20238;-68
2021/08/13 07:02:16;;;;;;;10.37;7.90;;;22.50;99.90;;;;;;5054660;28;20290;-69
2021/08/13 07:04:42;;;;;;;11.90;7.60;;;22.50;99.90;;;;;;5072105;28;20231;-70
2021/08/13 07:07:07;;;;;;;9.00;8.10;;;22.50;99.90;;;;;;5071283;28;20468;-70
2021/08/13 07:09:33;;;;;;;8.93;7.93;;;22.60;99.90;;;;;;5071806;28;20257;-69
2021/08/13 07:11:59;;;;;;;10.13;7.80;;;22.60;99.90;;;;;;5070924;28;20214;-70
2021/08/13 07:14:25;;;;;;;8.90;7.10;;;22.60;99.90;;;;;;5071645;28;20518;-69
2021/08/13 07:16:51;;;;;;;9.00;8.07;;;22.70;99.90;;;;;;5055181;28;20211;-68
2021/08/13 07:19:17;;;;;;;8.90;7.93;;;22.70;99.90;;;;;;5071095;28;20223;-68
2021/08/13 07:21:44;;;;;;;9.80;7.97;;;22.80;99.90;;;;;;5050914;28;20224;-70
2021/08/13 07:24:10;;;;;;;9.93;7.70;;;22.80;99.90;;;;;;5070953;28;21018;-69
2021/08/13 07:26:36;;;;;;;8.43;7.00;;;22.80;99.90;;;;;;5055068;28;20226;-68
2021/08/13 07:29:02;;;;;;;8.90;7.50;;;22.90;99.90;;;;;;5053906;28;20461;-70
2021/08/13 07:31:28;;;;;;;8.47;7.37;;;23.00;99.90;;;;;;5054714;28;20221;-70
2021/08/13 07:34:00;;;;;;;10.60;7.13;;;23.10;99.90;;;;;;5070953;28;20467;-68
2021/08/13 07:36:25;;;;;;;8.30;7.50;;;23.20;99.90;;;;;;5071650;28;20879;-69
2021/08/13 07:38:53;;;;;;;8.80;7.67;;;23.30;99.90;;;;;;5054565;28;20246;-68
2021/08/13 07:41:19;;;;;;;8.73;7.77;;;23.40;99.90;;;;;;5054670;28;20553;-69
2021/08/13 07:43:45;;;;;;;9.20;8.20;;;23.40;99.90;;;;;;5054905;28;20211;-69
2021/08/13 07:46:11;;;;;;;8.97;7.83;;;23.50;99.90;;;;;;5054188;28;20215;-70
2021/08/13 07:48:37;;;;;;;10.70;8.33;;;23.60;99.90;;;;;;5072544;28;20472;-69
2021/08/13 07:51:03;;;;;;;9.20;7.70;;;23.60;99.90;;;;;;5070456;28;20298;-70
2021/08/13 07:53:29;;;;;;;8.13;7.33;;;23.60;99.90;;;;;;5071087;28;20540;-71
2021/08/13 07:55:55;;;;;;;10.87;8.10;;;23.70;99.90;;;;;;5070870;28;20999;-70
2021/08/13 07:58:24;;;;;;;10.30;7.73;;;23.70;99.90;;;;;;5070877;28;20219;-69
2021/08/13 08:00:52;;;;;;;9.50;8.00;;;23.80;99.90;;;;;;5071088;28;20449;-73
2021/08/13 08:03:18;;;;;;;7.67;6.90;;;23.90;99.90;;;;;;5070950;28;20449;-70
2021/08/13 08:05:44;;;;;;;7.80;7.10;;;24.00;99.90;;;;;;5072435;28;20457;-70
2021/08/13 08:08:10;;;;;;;9.00;8.10;;;24.10;99.90;;;;;;5069466;28;20459;-70
2021/08/13 08:10:36;;;;;;;10.43;7.83;;;24.10;99.90;;;;;;5072260;28;20226;-70
2021/08/13 08:13:02;;;;;;;8.87;7.97;;;24.20;99.90;;;;;;5070274;28;20223;-68
2021/08/13 08:15:27;;;;;;;9.00;7.37;;;24.20;99.90;;;;;;5072323;28;20226;-70
2021/08/13 08:17:53;;;;;;;14.80;7.50;;;24.30;99.90;;;;;;5072198;28;20713;-70
2021/08/13 08:20:19;;;;;;;9.03;8.07;;;24.50;99.90;;;;;;5070727;28;20230;-69
2021/08/13 08:22:44;;;;;;;10.13;8.70;;;24.70;99.90;;;;;;5070448;28;20226;-70
2021/08/13 08:25:10;;;;;;;12.23;8.67;;;24.80;99.90;;;;;;5071272;28;20230;-70
2021/08/13 08:27:36;;;;;;;8.70;7.90;;;24.80;99.90;;;;;;5070469;28;20230;-69
2021/08/13 08:30:02;;;;;;;9.57;8.30;;;24.90;99.90;;;;;;5071385;28;20227;-70
2021/08/13 08:32:28;;;;;;;10.20;7.53;;;25.00;99.90;;;;;;5070429;28;20461;-69
2021/08/13 08:34:53;;;;;;;12.80;8.37;;;25.20;99.90;;;;;;5071290;28;20459;-69
2021/08/13 08:37:20;;;;;;;7.50;6.70;;;25.30;99.90;;;;;;5071844;28;20226;-69
2021/08/13 08:39:47;;;;;;;7.33;6.63;;;25.50;99.90;;;;;;5070267;28;20243;-69
2021/08/13 08:42:15;;;;;;;8.13;7.10;;;25.50;99.90;;;;;;5069784;28;20446;-69
2021/08/13 08:44:41;;;;;;;8.47;7.67;;;25.60;99.90;;;;;;5071217;28;21057;-69
2021/08/13 08:47:10;;;;;;;10.80;8.13;;;25.70;99.90;;;;;;5071142;28;20457;-70
2021/08/13 08:49:39;;;;;;;8.83;7.83;;;25.70;99.90;;;;;;5070182;28;20252;-69
2021/08/13 08:52:07;;;;;;;9.37;7.60;;;25.80;99.90;;;;;;5068959;28;20468;-71
2021/08/13 08:54:35;;;;;;;7.70;6.90;;;26.00;99.90;;;;;;5070968;28;20539;-69
2021/08/13 08:57:02;;;;;;;7.73;6.87;;;26.10;99.90;;;;;;5069068;28;20463;-69
2021/08/13 08:59:28;;;;;;;9.70;7.67;;;26.20;99.90;;;;;;5069731;28;20465;-69
2021/08/13 09:01:56;;;;;;;9.30;7.97;;;26.30;99.90;;;;;;5068674;28;20797;-70
2021/08/13 09:04:21;;;;;;;8.83;7.37;;;26.40;99.90;;;;;;5068816;28;20283;-69
2021/08/13 09:06:47;;;;;;;9.43;8.60;;;26.50;99.90;;;;;;5052208;28;20462;-69
2021/08/13 09:09:13;;;;;;;8.53;7.10;;;26.50;99.90;;;;;;5057160;28;20238;-71
2021/08/13 09:11:40;;;;;;;8.13;7.33;;;26.60;99.90;;;;;;5066260;28;20236;-71
2021/08/13 09:14:09;;;;;;;9.63;7.63;;;26.70;99.90;;;;;;5068088;28;20481;-69
2021/08/13 09:16:36;;;;;;;8.70;6.87;;;26.70;99.90;;;;;;5067979;28;20461;-70
2021/08/13 09:19:06;;;;;;;8.67;7.20;;;26.70;99.90;;;;;;5068630;28;20476;-70
2021/08/13 09:21:34;;;;;;;12.83;7.90;;;26.70;99.90;;;;;;5069705;28;20449;-70
2021/08/13 09:24:11;;;;;;;8.73;7.83;;;26.80;99.90;;;;;;5069914;28;20461;-69
2021/08/13 09:26:42;;;;;;;9.63;7.53;;;26.90;99.90;;;;;;5068899;28;20866;-70
2021/08/13 09:29:16;;;;;;;9.97;8.00;;;27.00;99.90;;;;;;5068437;28;21028;-69
2021/08/13 09:32:09;;;;;;;8.60;7.70;;;27.10;99.90;;;;;;5054970;28;20267;-69
2021/08/13 09:34:41;;;;;;;8.60;7.70;;;27.20;99.90;;;;;;5052636;28;20551;-70
2021/08/13 09:37:15;;;;;;;8.60;7.80;;;27.20;99.90;;;;;;5046307;28;20546;-70
2021/08/13 09:39:40;;;;;;;8.10;7.30;;;27.20;99.90;;;;;;5064989;28;20231;-69
2021/08/13 09:42:07;;;;;;;8.27;7.27;;;27.40;99.90;;;;;;5064932;28;20458;-70
2021/08/13 09:44:38;;;;;;;9.90;8.03;;;27.40;99.90;;;;;;5068004;28;20306;-70
2021/08/13 09:47:08;;;;;;;10.13;7.40;;;27.50;99.90;;;;;;5067849;28;20453;-69
2021/08/13 09:49:41;;;;;;;7.60;6.90;;;27.60;99.90;;;;;;5068671;28;20457;-70
2021/08/13 09:52:15;;;;;;;8.63;7.70;;;27.70;99.90;;;;;;5050580;28;20464;-71
2021/08/13 09:54:43;;;;;;;9.23;7.97;;;27.70;99.90;;;;;;5069381;28;20339;-70
2021/08/13 09:57:11;;;;;;;8.37;7.57;;;27.90;99.90;;;;;;5067968;28;20974;-70
2021/08/13 09:59:38;;;;;;;7.10;6.27;;;27.90;99.90;;;;;;5067959;28;20234;-71
2021/08/13 10:02:14;;;;;;;7.82;7.07;;;28.10;99.90;;;;;;5067799;28;20219;-70
2021/08/13 10:04:41;;;;;;;8.10;7.30;;;28.10;99.90;;;;;;5067933;28;20234;-71
2021/08/13 10:07:07;;;;;;;9.45;8.27;;;28.20;99.90;;;;;;5067893;28;20222;-69
2021/08/13 10:09:33;;;;;;;9.00;6.85;;;28.20;99.90;;;;;;5068421;28;20215;-69
2021/08/13 10:12:05;;;;;;;8.52;7.40;;;28.30;99.90;;;;;;5050791;28;20215;-70
2021/08/13 10:14:38;;;;;;;8.10;7.30;;;28.40;99.90;;;;;;5067725;28;20226;-70
2021/08/13 10:17:14;;;;;;;8.25;7.07;;;28.50;99.90;;;;;;5068222;28;20587;-70
2021/08/13 10:19:46;;;;;;;9.55;7.63;;;28.50;99.90;;;;;;5068823;28;20686;-70
2021/08/13 10:22:13;;;;;;;9.30;7.88;;;28.60;99.90;;;;;;5067844;28;20221;-71
2021/08/13 10:24:44;;;;;;;7.78;6.97;;;28.60;99.90;;;;;;5068466;28;20269;-70
2021/08/13 10:27:13;;;;;;;9.00;7.97;;;28.60;99.90;;;;;;5068114;28;20292;-70
2021/08/13 10:29:41;;;;;;;9.60;8.00;;;28.70;99.90;;;;;;5068459;28;20221;-69
2021/08/13 10:32:07;;;;;;;7.63;6.90;;;28.70;99.90;;;;;;5071265;28;20222;-70
2021/08/13 10:34:33;;;;;;;7.88;7.18;;;28.80;99.90;;;;;;5072425;28;20309;-70
2021/08/13 10:37:02;;;;;;;8.63;7.65;;;28.80;99.90;;;;;;5065503;28;20691;-70
2021/08/13 10:39:31;;;;;;;9.60;7.03;;;28.90;99.90;;;;;;5059108;28;20234;-70
2021/08/13 10:42:03;;;;;;;10.95;7.15;;;29.00;99.90;;;;;;5054700;28;20226;-70
2021/08/13 10:44:33;;;;;;;8.70;7.90;;;29.10;99.90;;;;;;5072467;28;20355;-68
2021/08/13 10:47:07;;;;;;;9.00;8.10;;;29.30;99.90;;;;;;5071896;28;20717;-70
2021/08/13 10:49:35;;;;;;;7.55;6.85;;;29.50;99.90;;;;;;5072335;28;20225;-70
2021/08/13 10:52:03;;;;;;;7.93;7.05;;;29.60;99.90;;;;;;5071439;28;20218;-70
2021/08/13 10:54:43;;;;;;;9.50;7.80;;;29.60;99.90;;;;;;5072627;28;20604;-71
2021/08/13 10:57:13;;;;;;;8.13;7.40;;;29.60;99.90;;;;;;5071956;28;20214;-69
2021/08/13 10:59:43;;;;;;;9.10;7.38;;;29.60;99.90;;;;;;5071363;28;20230;-70
2021/08/13 11:02:18;;;;;;;8.77;7.38;;;29.70;99.90;;;;;;5071340;28;20376;-70
2021/08/13 11:05:04;;;;;;;8.27;6.82;;;29.80;99.90;;;;;;5071433;28;20229;-68
2021/08/13 11:07:55;;;;;;;8.00;7.15;;;30.00;99.90;;;;;;5071844;28;20214;-71
2021/08/13 11:10:37;;;;;;;8.10;7.30;;;30.10;99.90;;;;;;5071384;28;20250;-72
2021/08/13 11:13:10;;;;;;;6.97;6.18;;;30.10;99.90;;;;;;5051277;28;20215;-70
2021/08/13 11:15:36;;;;;;;8.07;7.22;;;30.30;99.90;;;;;;5068233;28;20223;-70
2021/08/13 11:18:25;;;;;;;7.28;6.60;;;30.40;99.90;;;;;;5068259;28;20215;-70
2021/08/13 11:20:51;;;;;;;9.73;7.65;;;30.60;99.90;;;;;;5068218;28;20222;-69
2021/08/13 11:23:17;;;;;;;8.00;7.20;;;30.80;99.90;;;;;;5068289;28;20995;-69
2021/08/13 11:25:50;;;;;;;8.57;6.53;;;30.90;99.90;;;;;;5068173;28;20215;-71
2021/08/13 11:28:21;;;;;;;8.05;7.20;;;30.90;99.90;;;;;;5067046;28;20211;-70
2021/08/13 11:30:55;;;;;;;8.60;7.63;;;31.00;99.90;;;;;;5066606;28;20595;-69
2021/08/13 11:33:33;;;;;;;8.35;7.55;;;31.20;99.90;;;;;;5067879;28;20600;-70
2021/08/13 11:36:00;;;;;;;7.68;6.93;;;31.30;99.90;;;;;;5067804;28;20726;-70
2021/08/13 11:38:42;;;;;;;7.80;7.05;;;31.30;99.90;;;;;;5071613;28;20222;-70
2021/08/13 11:41:34;;;;;;;7.43;6.72;;;31.30;99.90;;;;;;5045473;28;20284;-70
2021/08/13 11:44:04;;;;;;;7.97;7.18;;;31.30;99.90;;;;;;5054308;28;20245;-69
2021/08/13 11:46:42;;;;;;;9.07;7.00;;;31.60;99.90;;;;;;5071335;28;20686;-70
2021/08/13 11:49:13;;;;;;;9.95;6.18;;;31.70;99.90;;;;;;5054545;28;20222;-69
2021/08/13 11:51:44;;;;;;;8.60;7.10;;;31.90;99.90;;;;;;5050700;28;20254;-69
2021/08/13 11:54:27;;;;;;;8.45;7.68;;;32.00;99.90;;;;;;5067490;28;20632;-69
2021/08/13 11:56:53;;;;;;;8.38;7.57;;;32.00;99.70;;;;;;5067138;28;20273;-68
2021/08/13 11:59:19;;;;;;;7.18;6.50;;;32.10;99.50;;;;;;5067445;28;20587;-70
2021/08/13 12:01:47;;;;;;;10.60;7.03;;;32.10;99.40;;;;;;5067442;28;20234;-68
2021/08/13 12:04:21;;;;;;;7.90;7.13;;;32.10;99.50;;;;;;5067579;28;20302;-70
2021/08/13 12:07:05;;;;;;;7.30;6.68;;;32.40;98.60;;;;;;5066909;28;20223;-69
2021/08/13 12:09:43;;;;;;;7.07;6.45;;;32.50;98.60;;;;;;5070395;28;20222;-70
2021/08/13 12:12:14;;;;;;;7.03;6.43;;;32.50;98.60;;;;;;5068404;28;20210;-71
2021/08/13 12:14:50;;;;;;;8.25;6.30;;;32.60;98.00;;;;;;5050472;28;20231;-70
2021/08/13 12:17:15;;;;;;;7.55;6.80;;;32.60;98.20;;;;;;5048835;28;20238;-71
2021/08/13 12:19:42;;;;;;;7.03;6.30;;;32.60;97.60;;;;;;5069619;28;20297;-71
2021/08/13 12:22:08;;;;;;;6.82;6.10;;;32.50;97.40;;;;;;5069127;28;20301;-69
2021/08/13 12:24:35;;;;;;;9.00;7.32;;;32.50;97.50;;;;;;5053225;28;20272;-70
2021/08/13 12:27:11;;;;;;;8.63;7.82;;;32.50;97.40;;;;;;5053261;28;20222;-70
2021/08/13 12:29:39;;;;;;;8.18;7.38;;;32.40;97.30;;;;;;5070153;28;20259;-71
2021/08/13 12:32:07;;;;;;;8.13;7.43;;;32.40;97.10;;;;;;5052899;28;20246;-70
2021/08/13 12:34:36;;;;;;;7.32;6.63;;;32.40;97.20;;;;;;5070016;28;20229;-69
2021/08/13 12:37:04;;;;;;;7.40;6.70;;;32.30;97.20;;;;;;5069506;28;20246;-70
2021/08/13 12:39:34;;;;;;;8.02;7.07;;;32.30;97.40;;;;;;5053490;28;20276;-69
2021/08/13 12:42:01;;;;;;;7.32;6.57;;;32.40;97.10;;;;;;5052754;28;20275;-70
2021/08/13 12:44:26;;;;;;;8.82;8.05;;;32.30;97.10;;;;;;5070048;28;20709;-70
2021/08/13 12:46:53;;;;;;;7.50;6.80;;;32.20;97.00;;;;;;5053490;28;20221;-70
2021/08/13 12:49:20;;;;;;;9.10;6.60;;;32.00;97.50;;;;;;5052968;28;20253;-70
2021/08/13 12:51:46;;;;;;;7.47;6.75;;;31.90;97.70;;;;;;5052319;28;20845;-70
2021/08/13 12:54:34;;;;;;;7.00;6.28;;;31.70;98.00;;;;;;5051149;28;20317;-70